Time,TemperatureF,DewpointF,PressureIn,WindDirection,WindDirectionDegrees,WindSpeedMPH,WindSpeedGustMPH,Humidity,HourlyPrecipIn,Conditions,Clouds,dailyrainin,SoftwareType,DateUTC
2013-06-12 00:02:00,36.0,29.0,-100.00,SW,225,0.0,1.0,77,-99.99,,,-99.99,,2013-06-12 07:02:00,
2013-06-12 00:12:00,35.0,29.0,-100.00,West,270,1.0,1.0,79,-99.99,,,-99.99,,2013-06-12 07:12:00,
2013-06-12 00:22:00,36.0,29.0,-100.00,SW,225,1.0,1.0,77,-99.99,,,-99.99,,2013-06-12 07:22:00,
2013-06-12 00:33:00,34.0,29.0,-100.00,West,270,3.0,3.0,80,-99.99,,,-99.99,,2013-06-12 07:33:00,
2013-06-12 00:43:00,34.0,29.0,-100.00,West,270,3.0,3.0,80,-99.99,,,-99.99,,2013-06-12 07:43:00,
2013-06-12 00:53:00,34.0,28.0,-100.00,West,270,3.0,5.0,78,-99.99,,,-99.99,,2013-06-12 07:53:00,
2013-06-12 01:02:00,35.0,29.0,-100.00,West,270,3.0,4.0,76,-99.99,,,-99.99,,2013-06-12 08:02:00,
2013-06-12 01:12:00,35.0,29.0,-100.00,West,270,3.0,4.0,76,-99.99,,,-99.99,,2013-06-12 08:12:00,
2013-06-12 01:22:00,35.0,28.0,-100.00,South,180,0.0,1.0,76,-99.99,,,-99.99,,2013-06-12 08:22:00,
2013-06-12 01:33:00,35.0,28.0,-100.00,South,180,0.0,1.0,76,-99.99,,,-99.99,,2013-06-12 08:33:00,
2013-06-12 01:43:00,36.0,28.0,-100.00,SE,135,1.0,1.0,72,-99.99,,,-99.99,,2013-06-12 08:43:00,
2013-06-12 01:53:00,34.0,28.0,-100.00,North,-999,0.0,0.0,77,-99.99,,,-99.99,,2013-06-12 08:53:00,
2013-06-12 02:01:00,34.0,28.0,-100.00,North,-999,0.0,0.0,77,-99.99,,,-99.99,,2013-06-12 09:01:00,
2013-06-12 02:11:00,34.0,28.0,-100.00,East,90,2.0,3.0,78,-99.99,,,-99.99,,2013-06-12 09:11:00,
2013-06-12 02:22:00,34.0,28.0,-100.00,NE,45,1.0,2.0,79,-99.99,,,-99.99,,2013-06-12 09:22:00,
2013-06-12 02:33:00,34.0,28.0,-100.00,North,0,2.0,3.0,81,-99.99,,,-99.99,,2013-06-12 09:33:00,
2013-06-12 02:42:00,34.0,28.0,-100.00,North,0,2.0,3.0,81,-99.99,,,-99.99,,2013-06-12 09:42:00,
2013-06-12 02:53:00,34.0,28.0,-100.00,NE,45,1.0,3.0,80,-99.99,,,-99.99,,2013-06-12 09:53:00,
2013-06-12 03:01:00,34.0,28.0,-100.00,NE,45,1.0,3.0,80,-99.99,,,-99.99,,2013-06-12 10:01:00,
2013-06-12 03:11:00,34.0,28.0,-100.00,NE,45,3.0,4.0,80,-99.99,,,-99.99,,2013-06-12 10:11:00,
2013-06-12 03:23:00,32.0,28.0,-100.00,NE,45,1.0,3.0,85,-99.99,,,-99.99,,2013-06-12 10:23:00,
2013-06-12 03:32:00,32.0,28.0,-100.00,NE,45,1.0,3.0,85,-99.99,,,-99.99,,2013-06-12 10:32:00,
2013-06-12 03:43:00,32.0,28.0,-100.00,NE,45,1.0,3.0,85,-99.99,,,-99.99,,2013-06-12 10:43:00,
2013-06-12 03:53:00,32.0,28.0,-100.00,North,0,0.0,1.0,86,-99.99,,,-99.99,,2013-06-12 10:53:00,
2013-06-12 04:01:00,32.0,28.0,-100.00,North,0,0.0,1.0,86,-99.99,,,-99.99,,2013-06-12 11:01:00,
2013-06-12 04:12:00,32.0,28.0,-100.00,North,0,0.0,1.0,86,-99.99,,,-99.99,,2013-06-12 11:12:00,
2013-06-12 04:24:00,31.0,28.0,-100.00,West,270,1.0,1.0,88,-99.99,,,-99.99,,2013-06-12 11:24:00,
2013-06-12 04:33:00,30.0,28.0,-100.00,West,270,2.0,2.0,90,-99.99,,,-99.99,,2013-06-12 11:33:00,
2013-06-12 04:42:00,30.0,28.0,-100.00,West,270,2.0,2.0,90,-99.99,,,-99.99,,2013-06-12 11:42:00,
2013-06-12 04:53:00,32.0,29.0,-100.00,NW,315,1.0,3.0,90,-99.99,,,-99.99,,2013-06-12 11:53:00,
2013-06-12 05:01:00,32.0,29.0,-100.00,West,270,1.0,2.0,90,-99.99,,,-99.99,,2013-06-12 12:01:00,
2013-06-12 05:11:00,32.0,29.0,-100.00,West,270,1.0,2.0,90,-99.99,,,-99.99,,2013-06-12 12:11:00,
2013-06-12 05:23:00,32.0,28.0,-100.00,West,270,0.0,1.0,87,-99.99,,,-99.99,,2013-06-12 12:23:00,
2013-06-12 05:33:00,32.0,28.0,-100.00,West,270,0.0,1.0,87,-99.99,,,-99.99,,2013-06-12 12:33:00,
2013-06-12 05:42:00,31.0,28.0,-100.00,West,270,1.0,2.0,89,-99.99,,,-99.99,,2013-06-12 12:42:00,
2013-06-12 05:53:00,31.0,28.0,-100.00,West,270,1.0,2.0,89,-99.99,,,-99.99,,2013-06-12 12:53:00,
2013-06-12 06:01:00,31.0,28.0,-100.00,West,270,1.0,2.0,89,-99.99,,,-99.99,,2013-06-12 13:01:00,
2013-06-12 06:11:00,31.0,28.0,-100.00,West,270,3.0,3.0,88,-99.99,,,-99.99,,2013-06-12 13:11:00,
2013-06-12 06:22:00,34.0,29.0,-100.00,West,270,1.0,3.0,83,-99.99,,,-99.99,,2013-06-12 13:22:00,
2013-06-12 06:32:00,34.0,29.0,-100.00,West,270,1.0,3.0,83,-99.99,,,-99.99,,2013-06-12 13:32:00,
2013-06-12 06:43:00,34.0,30.0,-100.00,West,270,1.0,2.0,83,-99.99,,,-99.99,,2013-06-12 13:43:00,
2013-06-12 06:53:00,36.0,29.0,-100.00,West,270,1.0,2.0,76,-99.99,,,-99.99,,2013-06-12 13:53:00,
2013-06-12 07:01:00,36.0,29.0,-100.00,West,270,1.0,2.0,76,-99.99,,,-99.99,,2013-06-12 14:01:00,
2013-06-12 07:11:00,37.0,30.0,-100.00,East,90,2.0,4.0,77,-99.99,,,-99.99,,2013-06-12 14:11:00,
2013-06-12 07:23:00,35.0,30.0,-100.00,NE,45,3.0,4.0,80,-99.99,,,-99.99,,2013-06-12 14:23:00,
2013-06-12 07:33:00,35.0,30.0,-100.00,NE,45,3.0,4.0,80,-99.99,,,-99.99,,2013-06-12 14:33:00,
2013-06-12 07:43:00,35.0,30.0,-100.00,SE,135,3.0,5.0,79,-99.99,,,-99.99,,2013-06-12 14:43:00,
2013-06-12 07:53:00,38.0,30.0,-100.00,NW,315,1.0,3.0,72,-99.99,,,-99.99,,2013-06-12 14:53:00,
2013-06-12 08:01:00,38.0,30.0,-100.00,South,180,2.0,4.0,72,-99.99,,,-99.99,,2013-06-12 15:01:00,
2013-06-12 08:11:00,38.0,30.0,-100.00,South,180,2.0,4.0,72,-99.99,,,-99.99,,2013-06-12 15:11:00,
2013-06-12 08:23:00,38.0,31.0,-100.00,SW,225,2.0,5.0,73,-99.99,,,-99.99,,2013-06-12 15:23:00,
2013-06-12 08:32:00,38.0,31.0,-100.00,SW,225,2.0,5.0,73,-99.99,,,-99.99,,2013-06-12 15:32:00,
2013-06-12 08:43:00,40.0,31.0,-100.00,East,90,2.0,6.0,70,-99.99,,,-99.99,,2013-06-12 15:43:00,
2013-06-12 08:52:00,39.0,30.0,-100.00,SE,135,3.0,9.0,70,-99.99,,,-99.99,,2013-06-12 15:52:00,
2013-06-12 09:01:00,38.0,30.0,-100.00,SE,135,2.0,4.0,73,-99.99,,,-99.99,,2013-06-12 16:01:00,
2013-06-12 09:11:00,38.0,30.0,-100.00,SE,135,2.0,4.0,73,-99.99,,,-99.99,,2013-06-12 16:11:00,
2013-06-12 09:21:00,39.0,30.0,-100.00,West,270,4.0,6.0,69,-99.99,,,-99.99,,2013-06-12 16:21:00,
2013-06-12 09:32:00,39.0,30.0,-100.00,West,270,4.0,6.0,69,-99.99,,,-99.99,,2013-06-12 16:32:00,
2013-06-12 09:43:00,41.0,31.0,-100.00,North,0,1.0,6.0,66,-99.99,,,-99.99,,2013-06-12 16:43:00,
2013-06-12 09:52:00,41.0,30.0,-100.00,West,270,4.0,6.0,64,-99.99,,,-99.99,,2013-06-12 16:52:00,
2013-06-12 10:01:00,44.0,30.0,-100.00,SW,225,1.0,5.0,59,-99.99,,,-99.99,,2013-06-12 17:01:00,
2013-06-12 10:11:00,44.0,30.0,-100.00,SW,225,1.0,5.0,59,-99.99,,,-99.99,,2013-06-12 17:11:00,
2013-06-12 10:22:00,44.0,31.0,-100.00,East,90,3.0,8.0,60,-99.99,,,-99.99,,2013-06-12 17:22:00,
2013-06-12 10:32:00,43.0,30.0,-100.00,West,270,3.0,6.0,61,-99.99,,,-99.99,,2013-06-12 17:32:00,
2013-06-12 10:42:00,43.0,30.0,-100.00,West,270,3.0,6.0,61,-99.99,,,-99.99,,2013-06-12 17:42:00,
2013-06-12 10:52:00,44.0,31.0,-100.00,NE,45,3.0,6.0,59,-99.99,,,-99.99,,2013-06-12 17:52:00,
2013-06-12 11:02:00,43.0,31.0,-100.00,NE,45,6.0,10.0,62,-99.99,,,-99.99,,2013-06-12 18:02:00,
2013-06-12 11:12:00,43.0,31.0,-100.00,NE,45,6.0,10.0,62,-99.99,,,-99.99,,2013-06-12 18:12:00,
2013-06-12 11:22:00,45.0,31.0,-100.00,NE,45,6.0,9.0,58,-99.99,,,-99.99,,2013-06-12 18:22:00,
2013-06-12 11:32:00,45.0,30.0,-100.00,East,90,4.0,9.0,56,-99.99,,,-99.99,,2013-06-12 18:32:00,
2013-06-12 11:43:00,45.0,30.0,-100.00,East,90,4.0,9.0,56,-99.99,,,-99.99,,2013-06-12 18:43:00,
2013-06-12 11:53:00,47.0,33.0,-100.00,NE,45,6.0,14.0,57,-99.99,,,-99.99,,2013-06-12 18:53:00,
2013-06-12 12:01:00,46.0,32.0,-100.00,East,90,6.0,9.0,58,-99.99,,,-99.99,,2013-06-12 19:01:00,
2013-06-12 12:11:00,46.0,32.0,-100.00,East,90,6.0,9.0,58,-99.99,,,-99.99,,2013-06-12 19:11:00,
2013-06-12 12:22:00,45.0,31.0,-100.00,SE,135,6.0,9.0,59,-99.99,,,-99.99,,2013-06-12 19:22:00,
2013-06-12 12:32:00,45.0,32.0,-100.00,NE,45,7.0,10.0,61,-99.99,,,-99.99,,2013-06-12 19:32:00,
2013-06-12 12:42:00,45.0,32.0,-100.00,NE,45,7.0,10.0,61,-99.99,,,-99.99,,2013-06-12 19:42:00,
2013-06-12 12:52:00,44.0,32.0,-100.00,NE,45,6.0,10.0,62,-99.99,,,-99.99,,2013-06-12 19:52:00,
2013-06-12 13:01:00,45.0,32.0,-100.00,East,90,7.0,11.0,59,-99.99,,,-99.99,,2013-06-12 20:01:00,
2013-06-12 13:11:00,45.0,32.0,-100.00,East,90,7.0,11.0,59,-99.99,,,-99.99,,2013-06-12 20:11:00,
2013-06-12 13:21:00,46.0,32.0,-100.00,SE,135,6.0,9.0,58,-99.99,,,-99.99,,2013-06-12 20:21:00,
2013-06-12 13:32:00,46.0,32.0,-100.00,SE,135,6.0,9.0,58,-99.99,,,-99.99,,2013-06-12 20:32:00,
2013-06-12 13:42:00,46.0,32.0,-100.00,SE,135,4.0,12.0,58,-99.99,,,-99.99,,2013-06-12 20:42:00,
2013-06-12 13:54:00,46.0,32.0,-100.00,East,90,4.0,7.0,57,-99.99,,,-99.99,,2013-06-12 20:54:00,
2013-06-12 14:01:00,46.0,32.0,-100.00,NE,45,4.0,9.0,59,-99.99,,,-99.99,,2013-06-12 21:01:00,
2013-06-12 14:11:00,46.0,32.0,-100.00,NE,45,4.0,9.0,59,-99.99,,,-99.99,,2013-06-12 21:11:00,
2013-06-12 14:21:00,46.0,32.0,-100.00,NE,45,3.0,11.0,58,-99.99,,,-99.99,,2013-06-12 21:21:00,
2013-06-12 14:33:00,47.0,32.0,-100.00,NE,45,3.0,8.0,57,-99.99,,,-99.99,,2013-06-12 21:33:00,
2013-06-12 14:43:00,47.0,32.0,-100.00,NE,45,3.0,8.0,57,-99.99,,,-99.99,,2013-06-12 21:43:00,
2013-06-12 14:53:00,47.0,32.0,-100.00,NE,45,4.0,7.0,56,-99.99,,,-99.99,,2013-06-12 21:53:00,
2013-06-12 15:01:00,48.0,32.0,-100.00,East,90,5.0,7.0,54,-99.99,,,-99.99,,2013-06-12 22:01:00,
2013-06-12 15:11:00,48.0,32.0,-100.00,East,90,5.0,7.0,54,-99.99,,,-99.99,,2013-06-12 22:11:00,
2013-06-12 15:22:00,48.0,32.0,-100.00,East,90,5.0,7.0,54,-99.99,,,-99.99,,2013-06-12 22:22:00,
2013-06-12 15:32:00,50.0,30.0,-100.00,West,270,2.0,6.0,46,-99.99,,,-99.99,,2013-06-12 22:32:00,
2013-06-12 15:43:00,50.0,23.0,-100.00,North,0,6.0,10.0,34,-99.99,,,-99.99,,2013-06-12 22:43:00,
2013-06-12 15:52:00,53.0,23.0,-100.00,West,270,7.0,16.0,30,-99.99,,,-99.99,,2013-06-12 22:52:00,
2013-06-12 16:01:00,52.0,24.0,-100.00,NW,315,4.0,18.0,33,-99.99,,,-99.99,,2013-06-12 23:01:00,
2013-06-12 16:11:00,52.0,24.0,-100.00,NW,315,4.0,18.0,33,-99.99,,,-99.99,,2013-06-12 23:11:00,
2013-06-12 16:22:00,52.0,23.0,-100.00,NW,315,7.0,15.0,31,-99.99,,,-99.99,,2013-06-12 23:22:00,
2013-06-12 16:32:00,52.0,23.0,-100.00,NW,315,7.0,15.0,31,-99.99,,,-99.99,,2013-06-12 23:32:00,
2013-06-12 16:42:00,51.0,23.0,-100.00,West,270,6.0,16.0,33,-99.99,,,-99.99,,2013-06-12 23:42:00,
2013-06-12 16:52:00,49.0,23.0,-100.00,West,270,8.0,13.0,35,-99.99,,,-99.99,,2013-06-12 23:52:00,
2013-06-12 17:01:00,48.0,23.0,-100.00,NW,315,11.0,18.0,37,-99.99,,,-99.99,,2013-06-13 00:01:00,
2013-06-12 17:11:00,48.0,23.0,-100.00,NW,315,11.0,18.0,37,-99.99,,,-99.99,,2013-06-13 00:11:00,
2013-06-12 17:22:00,50.0,25.0,-100.00,NW,315,7.0,16.0,38,-99.99,,,-99.99,,2013-06-13 00:22:00,
2013-06-12 17:32:00,50.0,26.0,-100.00,West,270,7.0,12.0,39,-99.99,,,-99.99,,2013-06-13 00:32:00,
2013-06-12 17:42:00,50.0,26.0,-100.00,West,270,7.0,12.0,39,-99.99,,,-99.99,,2013-06-13 00:42:00,
2013-06-12 17:52:00,49.0,26.0,-100.00,NW,315,8.0,14.0,41,-99.99,,,-99.99,,2013-06-13 00:52:00,
2013-06-12 18:01:00,48.0,26.0,-100.00,NW,315,10.0,16.0,42,-99.99,,,-99.99,,2013-06-13 01:01:00,
2013-06-12 18:11:00,48.0,26.0,-100.00,NW,315,10.0,16.0,42,-99.99,,,-99.99,,2013-06-13 01:11:00,
2013-06-12 18:22:00,48.0,26.0,-100.00,NW,315,10.0,16.0,42,-99.99,,,-99.99,,2013-06-13 01:22:00,
2013-06-12 18:32:00,48.0,27.0,-100.00,West,270,12.0,19.0,45,-99.99,,,-99.99,,2013-06-13 01:32:00,
2013-06-12 18:42:00,49.0,27.0,-100.00,NW,315,6.0,17.0,42,-99.99,,,-99.99,,2013-06-13 01:42:00,
2013-06-12 18:53:00,47.0,28.0,-100.00,NW,315,10.0,14.0,48,-99.99,,,-99.99,,2013-06-13 01:53:00,
2013-06-12 19:01:00,48.0,27.0,-100.00,West,270,4.0,11.0,44,-99.99,,,-99.99,,2013-06-13 02:01:00,
2013-06-12 19:11:00,48.0,27.0,-100.00,West,270,4.0,11.0,44,-99.99,,,-99.99,,2013-06-13 02:11:00,
2013-06-12 19:22:00,46.0,28.0,-100.00,North,0,3.0,9.0,49,-99.99,,,-99.99,,2013-06-13 02:22:00,
2013-06-12 19:32:00,45.0,28.0,-100.00,NW,315,6.0,12.0,50,-99.99,,,-99.99,,2013-06-13 02:32:00,
2013-06-12 19:42:00,45.0,28.0,-100.00,NW,315,6.0,12.0,50,-99.99,,,-99.99,,2013-06-13 02:42:00,
2013-06-12 19:52:00,44.0,27.0,-100.00,NW,315,7.0,11.0,50,-99.99,,,-99.99,,2013-06-13 02:52:00,
2013-06-12 20:01:00,44.0,28.0,-100.00,West,270,5.0,10.0,53,-99.99,,,-99.99,,2013-06-13 03:01:00,
2013-06-12 20:11:00,44.0,28.0,-100.00,West,270,5.0,10.0,53,-99.99,,,-99.99,,2013-06-13 03:11:00,
2013-06-12 20:22:00,42.0,28.0,-100.00,West,270,4.0,10.0,56,-99.99,,,-99.99,,2013-06-13 03:22:00,
2013-06-12 20:32:00,41.0,27.0,-100.00,NW,315,4.0,8.0,57,-99.99,,,-99.99,,2013-06-13 03:32:00,
2013-06-12 20:42:00,41.0,27.0,-100.00,NW,315,4.0,8.0,57,-99.99,,,-99.99,,2013-06-13 03:42:00,
2013-06-12 20:52:00,40.0,26.0,-100.00,West,270,3.0,7.0,59,-99.99,,,-99.99,,2013-06-13 03:52:00,
2013-06-12 21:01:00,39.0,26.0,-100.00,West,270,1.0,4.0,59,-99.99,,,-99.99,,2013-06-13 04:01:00,
2013-06-12 21:11:00,39.0,26.0,-100.00,West,270,1.0,4.0,59,-99.99,,,-99.99,,2013-06-13 04:11:00,
2013-06-12 21:22:00,38.0,27.0,-100.00,West,270,0.0,3.0,64,-99.99,,,-99.99,,2013-06-13 04:22:00,
2013-06-12 21:32:00,38.0,26.0,-100.00,NW,315,1.0,3.0,62,-99.99,,,-99.99,,2013-06-13 04:32:00,
2013-06-12 21:43:00,38.0,26.0,-100.00,NW,315,1.0,3.0,62,-99.99,,,-99.99,,2013-06-13 04:43:00,
2013-06-12 21:53:00,36.0,27.0,-100.00,West,270,3.0,4.0,69,-99.99,,,-99.99,,2013-06-13 04:53:00,
2013-06-12 22:01:00,37.0,26.0,-100.00,West,270,3.0,6.0,64,-99.99,,,-99.99,,2013-06-13 05:01:00,
2013-06-12 22:11:00,37.0,26.0,-100.00,West,270,3.0,6.0,64,-99.99,,,-99.99,,2013-06-13 05:11:00,
2013-06-12 22:23:00,37.0,25.0,-100.00,NW,315,3.0,8.0,62,-99.99,,,-99.99,,2013-06-13 05:23:00,
2013-06-12 22:32:00,37.0,25.0,-100.00,NW,315,3.0,8.0,62,-99.99,,,-99.99,,2013-06-13 05:32:00,
2013-06-12 22:42:00,37.0,25.0,-100.00,East,90,0.0,6.0,63,-99.99,,,-99.99,,2013-06-13 05:42:00,
2013-06-12 22:53:00,36.0,25.0,-100.00,NW,315,1.0,4.0,64,-99.99,,,-99.99,,2013-06-13 05:53:00,
2013-06-12 23:01:00,35.0,25.0,-100.00,West,270,4.0,5.0,68,-99.99,,,-99.99,,2013-06-13 06:01:00,
2013-06-12 23:11:00,35.0,25.0,-100.00,West,270,4.0,5.0,68,-99.99,,,-99.99,,2013-06-13 06:11:00,
2013-06-12 23:22:00,36.0,25.0,-100.00,SE,135,3.0,4.0,66,-99.99,,,-99.99,,2013-06-13 06:22:00,
2013-06-12 23:33:00,34.0,25.0,-100.00,NE,45,1.0,4.0,68,-99.99,,,-99.99,,2013-06-13 06:33:00,
2013-06-12 23:44:00,34.0,25.0,-100.00,NE,45,1.0,4.0,68,-99.99,,,-99.99,,2013-06-13 06:44:00,
2013-06-12 23:52:00,34.0,25.0,-100.00,West,270,1.0,3.0,68,-99.99,,,-99.99,,2013-06-13 06:52:00,